Time;durP1;ratioP1;P1;durP2;ratioP2;P2;SDS_P1;SDS_P2;PMS_P1;PMS_P2;Temp;Humidity;BMP_temperature;BMP_pressure;BME280_temperature;BME280_humidity;BME280_pressure;Samples;Min_cycle;Max_cycle;Signal;HPM_P1;HPM_P2
2023/10/01 00:00:52;;;;;;;10.67;7.33;;;;;;;;;;5034052;28;20805;-82
2023/10/01 00:03:18;;;;;;;13.87;8.60;;;;;;;;;;5034644;28;20450;-81
2023/10/01 00:05:45;;;;;;;11.20;8.57;;;;;;;;;;5035567;28;20484;-81
2023/10/01 00:08:12;;;;;;;15.00;8.30;;;;;;;;;;5035008;28;20468;-81
2023/10/01 00:10:41;;;;;;;16.43;8.83;;;;;;;;;;5037649;28;20543;-83
2023/10/01 00:13:08;;;;;;;18.27;8.97;;;;;;;;;;5034655;28;20867;-82
2023/10/01 00:15:34;;;;;;;15.37;8.00;;;;;;;;;;5035206;28;20448;-81
2023/10/01 00:18:01;;;;;;;16.80;8.60;;;;;;;;;;5034624;28;20432;-82
2023/10/01 00:20:28;;;;;;;14.23;9.87;;;;;;;;;;5035295;28;20514;-82
2023/10/01 00:22:57;;;;;;;18.87;9.63;;;;;;;;;;5018767;28;20451;-82
2023/10/01 00:25:23;;;;;;;13.27;9.20;;;;;;;;;;5015130;28;20448;-81
2023/10/01 00:27:51;;;;;;;14.17;8.33;;;;;;;;;;5015498;28;20527;-82
2023/10/01 00:30:18;;;;;;;13.07;8.20;;;;;;;;;;5014476;28;20965;-83
2023/10/01 00:32:46;;;;;;;15.77;8.03;;;;;;;;;;5014661;28;20492;-81
2023/10/01 00:35:13;;;;;;;14.30;10.33;;;;;;;;;;5014921;28;20480;-81
2023/10/01 00:37:40;;;;;;;16.20;8.77;;;;;;;;;;5014758;28;20475;-81
2023/10/01 00:40:08;;;;;;;20.17;10.07;;;;;;;;;;5044109;28;20466;-80
2023/10/01 00:42:35;;;;;;;13.60;8.60;;;;;;;;;;5054593;28;20848;-81
2023/10/01 00:45:03;;;;;;;14.73;9.40;;;;;;;;;;5053861;28;20478;-81
2023/10/01 00:47:31;;;;;;;15.87;9.33;;;;;;;;;;5054251;28;20437;-80
2023/10/01 00:49:58;;;;;;;14.40;9.57;;;;;;;;;;5053512;28;20468;-80
2023/10/01 00:52:25;;;;;;;15.13;9.47;;;;;;;;;;5054072;28;20520;-80
2023/10/01 00:54:52;;;;;;;12.63;8.93;;;;;;;;;;5085981;28;20526;-80
2023/10/01 00:57:18;;;;;;;13.37;8.93;;;;;;;;;;5054353;28;20422;-80
2023/10/01 00:59:45;;;;;;;18.90;11.10;;;;;;;;;;5052314;28;20468;-81
2023/10/01 01:02:15;;;;;;;15.70;10.27;;;;;;;;;;5053851;28;20981;-81
2023/10/01 01:04:47;;;;;;;13.73;10.00;;;;;;;;;;5053507;28;20475;-80
2023/10/01 01:07:16;;;;;;;15.33;9.60;;;;;;;;;;5054003;28;20436;-80
2023/10/01 01:09:42;;;;;;;14.37;9.60;;;;;;;;;;5047482;28;20446;-80
2023/10/01 01:12:09;;;;;;;18.63;9.80;;;;;;;;;;5043482;28;20420;-80
2023/10/01 01:14:36;;;;;;;15.17;9.83;;;;;;;;;;5047117;28;20469;-81
2023/10/01 01:17:03;;;;;;;15.80;9.50;;;;;;;;;;5034084;28;20909;-80
2023/10/01 01:19:34;;;;;;;14.70;10.73;;;;;;;;;;5084020;28;21063;-80
2023/10/01 01:22:01;;;;;;;19.47;10.27;;;;;;;;;;5052850;28;20439;-80
2023/10/01 01:24:29;;;;;;;16.13;9.77;;;;;;;;;;5052195;28;20438;-80
2023/10/01 01:27:00;;;;;;;15.70;9.50;;;;;;;;;;5054173;28;20440;-82
2023/10/01 01:29:34;;;;;;;15.77;8.97;;;;;;;;;;5053612;28;20558;-82
2023/10/01 01:32:07;;;;;;;18.13;10.50;;;;;;;;;;5053064;28;20418;-82
2023/10/01 01:34:35;;;;;;;16.37;12.07;;;;;;;;;;5053074;28;20967;-82
2023/10/01 01:37:05;;;;;;;14.07;10.90;;;;;;;;;;5052969;28;20500;-82
2023/10/01 01:39:42;;;;;;;12.50;9.17;;;;;;;;;;5053555;28;20971;-82
2023/10/01 01:42:08;;;;;;;15.23;11.27;;;;;;;;;;5053706;28;20398;-82
2023/10/01 01:44:37;;;;;;;18.60;10.87;;;;;;;;;;5053133;28;20899;-81
2023/10/01 01:47:07;;;;;;;13.27;9.87;;;;;;;;;;5053814;28;20512;-82
2023/10/01 01:49:34;;;;;;;14.87;10.17;;;;;;;;;;5056411;28;20499;-82
2023/10/01 01:52:03;;;;;;;19.40;10.60;;;;;;;;;;5057260;28;20419;-82
2023/10/01 01:54:31;;;;;;;13.50;9.90;;;;;;;;;;5055724;28;20556;-81
2023/10/01 01:56:58;;;;;;;18.20;11.20;;;;;;;;;;5057112;28;20797;-82
2023/10/01 01:59:28;;;;;;;14.37;10.50;;;;;;;;;;5056559;28;20442;-82
2023/10/01 02:01:55;;;;;;;12.03;10.00;;;;;;;;;;5057240;28;20861;-82
2023/10/01 02:04:22;;;;;;;20.93;11.47;;;;;;;;;;5056306;28;20526;-81
2023/10/01 02:06:50;;;;;;;15.40;11.67;;;;;;;;;;5055979;28;20450;-82
2023/10/01 02:09:19;;;;;;;14.27;10.77;;;;;;;;;;5056989;28;20530;-82
2023/10/01 02:11:45;;;;;;;16.67;12.17;;;;;;;;;;5057263;28;20543;-81
2023/10/01 02:14:29;;;;;;;18.97;11.93;;;;;;;;;;5055108;28;20447;-81
2023/10/01 02:17:02;;;;;;;22.33;11.90;;;;;;;;;;5056799;28;20451;-81
2023/10/01 02:19:29;;;;;;;16.10;11.30;;;;;;;;;;5056332;28;20446;-81
2023/10/01 02:22:00;;;;;;;16.43;11.10;;;;;;;;;;5056731;28;20879;-81
2023/10/01 02:24:37;;;;;;;16.37;12.23;;;;;;;;;;5055877;28;20454;-82
2023/10/01 02:27:04;;;;;;;13.50;11.33;;;;;;;;;;5056534;28;20458;-81
2023/10/01 02:29:32;;;;;;;15.57;11.33;;;;;;;;;;5054333;28;20446;-82
2023/10/01 02:32:04;;;;;;;21.63;12.70;;;;;;;;;;5056798;28;20454;-81
2023/10/01 02:34:31;;;;;;;20.27;11.90;;;;;;;;;;5055629;28;21037;-81
2023/10/01 02:36:58;;;;;;;15.80;12.57;;;;;;;;;;5056400;28;20481;-81
2023/10/01 02:39:27;;;;;;;13.70;11.90;;;;;;;;;;5056257;28;20446;-81
2023/10/01 02:42:21;;;;;;;18.63;13.07;;;;;;;;;;5055846;28;20418;-81
2023/10/01 02:44:48;;;;;;;16.50;12.63;;;;;;;;;;5055410;28;20485;-81
2023/10/01 02:47:19;;;;;;;19.07;14.10;;;;;;;;;;5056568;28;20403;-82
2023/10/01 02:49:49;;;;;;;22.20;15.27;;;;;;;;;;5055286;28;20514;-81
2023/10/01 02:52:15;;;;;;;21.97;14.60;;;;;;;;;;5054652;28;20414;-81
2023/10/01 02:54:42;;;;;;;19.23;13.97;;;;;;;;;;5054739;28;20477;-81
2023/10/01 02:57:23;;;;;;;20.00;15.70;;;;;;;;;;5056051;28;20440;-82
2023/10/01 03:02:38;;;;;;;23.40;13.70;;;;;;;;;;5056330;28;20419;-81
2023/10/01 03:05:05;;;;;;;17.40;14.10;;;;;;;;;;5055400;28;20479;-81
2023/10/01 03:07:38;;;;;;;20.87;14.37;;;;;;;;;;5055366;28;20448;-82
2023/10/01 03:10:12;;;;;;;19.20;13.30;;;;;;;;;;5053992;28;20467;-81
2023/10/01 03:12:40;;;;;;;18.87;14.00;;;;;;;;;;5056001;28;20424;-82
2023/10/01 03:15:23;;;;;;;20.30;14.13;;;;;;;;;;5055244;28;20419;-81
2023/10/01 03:17:56;;;;;;;22.57;15.47;;;;;;;;;;5055554;28;20513;-81
2023/10/01 03:23:04;;;;;;;18.43;13.97;;;;;;;;;;5054860;28;20422;-82
2023/10/01 03:25:40;;;;;;;24.33;14.17;;;;;;;;;;5054402;28;20475;-81
2023/10/01 03:28:07;;;;;;;20.53;14.80;;;;;;;;;;5054778;28;20974;-81
2023/10/01 03:30:35;;;;;;;14.43;13.03;;;;;;;;;;5054967;28;20448;-81
2023/10/01 03:33:08;;;;;;;20.33;15.23;;;;;;;;;;5054782;28;20438;-82
2023/10/01 03:35:34;;;;;;;19.70;14.03;;;;;;;;;;5055195;28;20948;-81
2023/10/01 03:38:11;;;;;;;18.87;13.07;;;;;;;;;;5053636;28;20430;-82
2023/10/01 03:40:58;;;;;;;17.93;14.10;;;;;;;;;;5054508;28;20444;-81
2023/10/01 03:43:32;;;;;;;16.73;14.67;;;;;;;;;;5054995;28;20475;-81
2023/10/01 03:46:08;;;;;;;21.57;16.10;;;;;;;;;;5054257;28;20915;-82
2023/10/01 03:48:57;;;;;;;24.37;15.27;;;;;;;;;;5055608;28;20575;-81
2023/10/01 03:51:31;;;;;;;23.73;16.57;;;;;;;;;;5055449;28;20432;-81
2023/10/01 03:54:03;;;;;;;19.67;14.60;;;;;;;;;;5053610;28;20510;-81
2023/10/01 03:56:32;;;;;;;18.57;16.60;;;;;;;;;;5055116;28;20898;-81
2023/10/01 03:59:00;;;;;;;22.03;17.50;;;;;;;;;;5054505;28;20580;-81
2023/10/01 04:01:33;;;;;;;23.73;16.97;;;;;;;;;;5054970;28;20795;-81
2023/10/01 04:04:00;;;;;;;25.90;18.63;;;;;;;;;;5054560;28;20504;-82
2023/10/01 04:06:27;;;;;;;20.10;15.50;;;;;;;;;;5055226;28;21011;-81
2023/10/01 04:08:55;;;;;;;18.83;16.50;;;;;;;;;;5054611;28;20499;-82
2023/10/01 04:11:41;;;;;;;25.10;17.10;;;;;;;;;;5054164;28;20450;-81
2023/10/01 04:14:10;;;;;;;25.60;17.93;;;;;;;;;;5053993;28;20986;-82
2023/10/01 04:16:46;;;;;;;21.63;15.70;;;;;;;;;;5055039;28;20422;-81
2023/10/01 04:19:13;;;;;;;26.50;18.30;;;;;;;;;;5054671;28;20600;-81
2023/10/01 04:21:43;;;;;;;22.63;15.90;;;;;;;;;;5054834;28;20414;-81
2023/10/01 04:24:10;;;;;;;22.10;14.93;;;;;;;;;;5052815;28;20549;-82
2023/10/01 04:26:36;;;;;;;27.87;17.90;;;;;;;;;;5055051;28;20438;-81
2023/10/01 04:29:03;;;;;;;26.70;17.37;;;;;;;;;;5054459;28;20447;-82
2023/10/01 04:34:17;;;;;;;22.50;17.80;;;;;;;;;;5048715;28;20460;-81
2023/10/01 04:36:44;;;;;;;26.83;19.23;;;;;;;;;;5054956;28;20473;-82
2023/10/01 04:39:11;;;;;;;27.83;18.10;;;;;;;;;;5054616;28;20467;-81
2023/10/01 04:41:37;;;;;;;28.50;17.77;;;;;;;;;;5054442;28;20513;-81
2023/10/01 04:44:07;;;;;;;24.73;18.30;;;;;;;;;;5054205;28;20480;-82
2023/10/01 04:46:37;;;;;;;22.70;18.57;;;;;;;;;;5054809;28;20435;-81
2023/10/01 04:49:08;;;;;;;29.20;19.20;;;;;;;;;;5054558;28;20488;-82
2023/10/01 04:51:45;;;;;;;23.53;18.47;;;;;;;;;;5053637;28;20823;-82
2023/10/01 04:54:17;;;;;;;21.53;18.00;;;;;;;;;;5054316;28;20446;-81
2023/10/01 04:56:44;;;;;;;31.77;21.50;;;;;;;;;;5054854;28;20421;-82
2023/10/01 04:59:10;;;;;;;32.23;22.07;;;;;;;;;;5053517;28;20478;-82
2023/10/01 05:01:38;;;;;;;23.93;18.37;;;;;;;;;;5054570;28;20413;-81
2023/10/01 05:04:05;;;;;;;31.20;20.97;;;;;;;;;;5053415;28;20859;-81
2023/10/01 05:06:31;;;;;;;31.57;22.00;;;;;;;;;;5054894;28;20932;-81
2023/10/01 05:08:59;;;;;;;29.37;22.47;;;;;;;;;;5053493;28;21003;-82
2023/10/01 05:11:31;;;;;;;28.40;22.00;;;;;;;;;;5054050;28;20418;-82
2023/10/01 05:13:58;;;;;;;34.30;23.17;;;;;;;;;;5053305;28;20462;-81
2023/10/01 05:16:27;;;;;;;32.30;23.37;;;;;;;;;;5054505;28;20415;-81
2023/10/01 05:19:09;;;;;;;30.80;22.63;;;;;;;;;;5053647;28;20506;-82
2023/10/01 05:21:36;;;;;;;34.00;22.43;;;;;;;;;;5053922;28;20418;-81
2023/10/01 05:24:05;;;;;;;29.77;21.17;;;;;;;;;;5054457;28;20522;-81
2023/10/01 05:26:35;;;;;;;30.37;23.10;;;;;;;;;;5058413;28;20414;-82
2023/10/01 05:29:02;;;;;;;32.23;22.07;;;;;;;;;;5057206;28;20478;-83
2023/10/01 05:31:29;;;;;;;32.73;23.00;;;;;;;;;;5057279;28;20414;-82
2023/10/01 05:33:58;;;;;;;32.00;23.97;;;;;;;;;;5057419;28;20507;-82
2023/10/01 05:36:26;;;;;;;32.27;21.70;;;;;;;;;;5058139;28;20480;-82
2023/10/01 05:38:53;;;;;;;33.87;22.37;;;;;;;;;;5057814;28;20883;-81
2023/10/01 05:41:29;;;;;;;33.43;23.93;;;;;;;;;;5057897;28;20447;-82
2023/10/01 05:43:56;;;;;;;27.93;21.23;;;;;;;;;;5056197;28;20454;-82
2023/10/01 05:46:23;;;;;;;26.57;20.77;;;;;;;;;;5058590;28;20461;-82
2023/10/01 05:48:50;;;;;;;27.33;21.40;;;;;;;;;;5057853;28;20492;-81
2023/10/01 05:51:18;;;;;;;29.73;23.20;;;;;;;;;;5056673;28;20490;-81
2023/10/01 05:53:45;;;;;;;32.00;23.10;;;;;;;;;;5057440;28;20447;-81
2023/10/01 05:56:11;;;;;;;28.47;22.33;;;;;;;;;;5057504;28;20912;-82
2023/10/01 05:58:39;;;;;;;30.63;23.93;;;;;;;;;;5057618;28;20438;-81
2023/10/01 06:01:14;;;;;;;27.80;23.07;;;;;;;;;;5058223;28;20421;-81
2023/10/01 06:03:40;;;;;;;27.10;21.53;;;;;;;;;;5056968;28;20503;-82
2023/10/01 06:06:09;;;;;;;29.30;20.60;;;;;;;;;;5056538;28;20481;-81
2023/10/01 06:08:45;;;;;;;30.13;21.70;;;;;;;;;;5057491;28;20472;-82
2023/10/01 06:11:13;;;;;;;33.83;21.20;;;;;;;;;;5057487;28;20395;-81
2023/10/01 06:13:48;;;;;;;31.87;22.33;;;;;;;;;;5056693;28;20802;-82
2023/10/01 06:16:16;;;;;;;36.80;23.60;;;;;;;;;;5056959;28;20873;-81
2023/10/01 06:18:49;;;;;;;32.60;22.90;;;;;;;;;;5057321;28;20478;-81
2023/10/01 06:21:18;;;;;;;26.03;20.33;;;;;;;;;;5056848;28;20444;-81
2023/10/01 06:23:50;;;;;;;29.47;21.27;;;;;;;;;;5056786;28;20472;-82
2023/10/01 06:26:18;;;;;;;29.30;22.13;;;;;;;;;;5056548;28;20461;-81
2023/10/01 06:28:45;;;;;;;31.90;22.20;;;;;;;;;;5055411;28;20460;-82
2023/10/01 06:31:12;;;;;;;32.00;22.47;;;;;;;;;;5057349;28;20418;-81
2023/10/01 06:33:38;;;;;;;30.80;21.60;;;;;;;;;;5056023;28;20457;-82
2023/10/01 06:38:48;;;;;;;26.87;20.37;;;;;;;;;;5054936;28;20452;-81
2023/10/01 06:41:16;;;;;;;27.40;21.40;;;;;;;;;;5056985;28;20411;-82
2023/10/01 06:43:48;;;;;;;30.37;20.00;;;;;;;;;;5056591;28;20483;-82
2023/10/01 06:46:16;;;;;;;25.17;20.30;;;;;;;;;;5055530;28;20919;-81
2023/10/01 06:48:43;;;;;;;28.40;21.17;;;;;;;;;;5056546;28;20442;-82
2023/10/01 06:51:12;;;;;;;29.53;21.87;;;;;;;;;;5056966;28;20422;-82
2023/10/01 06:53:45;;;;;;;28.13;20.80;;;;;;;;;;5056276;28;20442;-81
2023/10/01 06:56:14;;;;;;;26.73;19.47;;;;;;;;;;5056351;28;20457;-81
2023/10/01 06:58:43;;;;;;;26.23;20.33;;;;;;;;;;5054695;28;20496;-82
2023/10/01 07:01:34;;;;;;;27.43;20.97;;;;;;;;;;5058112;28;20425;-82
2023/10/01 07:03:59;;;;;;;29.40;21.60;;;;;;;;;;5054722;28;20480;-80
2023/10/01 07:06:26;;;;;;;27.47;18.40;;;;;;;;;;5056681;28;20454;-80
2023/10/01 07:08:53;;;;;;;30.30;20.87;;;;;;;;;;5054635;28;20997;-80
2023/10/01 07:11:20;;;;;;;29.20;18.03;;;;;;;;;;5057092;28;20444;-80
2023/10/01 07:13:47;;;;;;;28.80;19.53;;;;;;;;;;5055467;28;20483;-81
2023/10/01 07:16:17;;;;;;;27.37;20.23;;;;;;;;;;5056371;28;20410;-80
2023/10/01 07:18:44;;;;;;;28.37;20.03;;;;;;;;;;5054795;28;20843;-80
2023/10/01 07:21:16;;;;;;;28.90;19.67;;;;;;;;;;5056106;28;20422;-80
2023/10/01 07:23:42;;;;;;;28.63;20.77;;;;;;;;;;5055647;28;20445;-80
2023/10/01 07:26:12;;;;;;;26.00;20.80;;;;;;;;;;5056612;28;20570;-80
2023/10/01 07:28:41;;;;;;;25.53;19.60;;;;;;;;;;5054720;28;20442;-80
2023/10/01 07:31:08;;;;;;;29.23;21.10;;;;;;;;;;5054477;28;20560;-81
2023/10/01 07:33:34;;;;;;;26.37;18.83;;;;;;;;;;5053985;28;20468;-81
2023/10/01 07:36:01;;;;;;;33.57;20.47;;;;;;;;;;5054045;28;20422;-80
2023/10/01 07:38:30;;;;;;;26.90;20.80;;;;;;;;;;5053255;28;20470;-80
2023/10/01 07:41:07;;;;;;;28.03;21.33;;;;;;;;;;5055796;28;20962;-80
2023/10/01 07:43:34;;;;;;;32.30;22.00;;;;;;;;;;5054919;28;20477;-80
2023/10/01 07:46:02;;;;;;;29.77;20.17;;;;;;;;;;5052919;28;20543;-80
2023/10/01 07:48:31;;;;;;;29.53;21.37;;;;;;;;;;5055356;28;20799;-80
2023/10/01 07:51:02;;;;;;;25.10;20.37;;;;;;;;;;5055802;28;20494;-81
2023/10/01 07:53:33;;;;;;;25.57;18.20;;;;;;;;;;5054691;28;20824;-81
2023/10/01 07:56:01;;;;;;;24.77;18.83;;;;;;;;;;5057997;28;20873;-81
2023/10/01 07:58:45;;;;;;;27.37;20.80;;;;;;;;;;5055261;28;20499;-82
2023/10/01 08:03:56;;;;;;;29.37;20.70;;;;;;;;;;5054231;28;20970;-81
2023/10/01 08:06:29;;;;;;;28.00;18.57;;;;;;;;;;5055381;28;20442;-81
2023/10/01 08:08:58;;;;;;;24.43;19.40;;;;;;;;;;5054008;28;20450;-82
2023/10/01 08:14:08;;;;;;;29.90;21.00;;;;;;;;;;5043158;28;20450;-82
2023/10/01 08:16:47;;;;;;;27.40;20.57;;;;;;;;;;5055044;28;20463;-81
2023/10/01 08:19:13;;;;;;;32.60;20.87;;;;;;;;;;5052264;28;20541;-81
2023/10/01 08:21:48;;;;;;;24.93;19.60;;;;;;;;;;5054869;28;20455;-81
2023/10/01 08:24:18;;;;;;;30.83;20.70;;;;;;;;;;5053057;28;20530;-81
2023/10/01 08:26:49;;;;;;;31.77;21.00;;;;;;;;;;5055080;28;20439;-81
2023/10/01 08:29:16;;;;;;;34.80;21.70;;;;;;;;;;5054572;28;20467;-82
2023/10/01 08:34:28;;;;;;;28.03;20.10;;;;;;;;;;5054126;28;21067;-81
2023/10/01 08:36:54;;;;;;;30.80;19.17;;;;;;;;;;5054831;28;20431;-81
2023/10/01 08:39:33;;;;;;;26.90;19.80;;;;;;;;;;5049788;28;20466;-81
2023/10/01 08:41:59;;;;;;;35.43;19.50;;;;;;;;;;5053783;28;20904;-81
2023/10/01 08:44:33;;;;;;;32.63;19.80;;;;;;;;;;5053796;28;20469;-81
2023/10/01 08:47:21;;;;;;;29.33;19.60;;;;;;;;;;5054510;28;20703;-81
2023/10/01 08:49:49;;;;;;;24.90;18.33;;;;;;;;;;5054144;28;20475;-79
2023/10/01 08:52:25;;;;;;;25.90;18.27;;;;;;;;;;5054252;28;20905;-81
2023/10/01 08:54:54;;;;;;;31.53;18.93;;;;;;;;;;5053788;28;20827;-81
2023/10/01 08:57:36;;;;;;;25.53;18.43;;;;;;;;;;5055679;28;20415;-81
2023/10/01 09:00:14;;;;;;;26.70;16.80;;;;;;;;;;5058518;28;20442;-81
2023/10/01 09:02:42;;;;;;;27.60;17.40;;;;;;;;;;5058602;28;20871;-81
2023/10/01 09:05:09;;;;;;;24.57;16.80;;;;;;;;;;5057983;28;20430;-81
2023/10/01 09:07:40;;;;;;;22.90;16.67;;;;;;;;;;5058307;28;20414;-81
2023/10/01 09:10:15;;;;;;;27.70;16.60;;;;;;;;;;5057911;28;20440;-81
2023/10/01 09:12:46;;;;;;;25.90;16.50;;;;;;;;;;5058325;28;20420;-81
2023/10/01 09:15:22;;;;;;;25.20;15.83;;;;;;;;;;5058136;28;20466;-81
2023/10/01 09:17:58;;;;;;;27.47;16.77;;;;;;;;;;5057960;28;20424;-81
2023/10/01 09:20:42;;;;;;;24.57;15.83;;;;;;;;;;5056800;28;20422;-81
2023/10/01 09:23:08;;;;;;;26.00;18.10;;;;;;;;;;5057528;28;20429;-81
2023/10/01 09:25:39;;;;;;;25.27;17.37;;;;;;;;;;5058128;28;20993;-81
2023/10/01 09:28:19;;;;;;;29.37;17.30;;;;;;;;;;5056993;28;20444;-80
2023/10/01 09:30:56;;;;;;;27.60;16.57;;;;;;;;;;5058249;28;20432;-81
2023/10/01 09:33:26;;;;;;;28.80;15.80;;;;;;;;;;5057519;28;20811;-81
2023/10/01 09:35:59;;;;;;;26.60;16.67;;;;;;;;;;5057738;28;20933;-81
2023/10/01 09:38:27;;;;;;;25.00;17.20;;;;;;;;;;5057318;28;20472;-80
2023/10/01 09:40:56;;;;;;;28.40;15.80;;;;;;;;;;5057804;28;20444;-81
2023/10/01 09:43:27;;;;;;;26.27;16.17;;;;;;;;;;5057471;28;20985;-80
2023/10/01 09:45:57;;;;;;;26.73;16.47;;;;;;;;;;5057380;28;20521;-81
2023/10/01 09:48:30;;;;;;;26.23;15.90;;;;;;;;;;5056420;28;20976;-80
2023/10/01 09:51:07;;;;;;;26.30;17.17;;;;;;;;;;5057851;28;20469;-81
2023/10/01 09:53:43;;;;;;;27.30;17.47;;;;;;;;;;5053734;28;20541;-81
2023/10/01 09:56:12;;;;;;;34.13;16.03;;;;;;;;;;5064550;28;20916;-81
2023/10/01 09:58:46;;;;;;;28.90;17.40;;;;;;;;;;5056643;28;20468;-81
2023/10/01 10:01:17;;;;;;;35.20;17.90;;;;;;;;;;5057941;28;20405;-80
2023/10/01 10:03:44;;;;;;;28.17;16.60;;;;;;;;;;5056383;28;20993;-81
2023/10/01 10:06:11;;;;;;;29.63;18.57;;;;;;;;;;5056621;28;20583;-82
2023/10/01 10:08:37;;;;;;;33.50;18.67;;;;;;;;;;5054686;28;20547;-81
2023/10/01 10:11:06;;;;;;;25.80;17.80;;;;;;;;;;5056400;28;20419;-81
2023/10/01 10:13:36;;;;;;;25.50;17.30;;;;;;;;;;5055645;28;21020;-82
2023/10/01 10:16:28;;;;;;;32.57;19.43;;;;;;;;;;5056438;28;20473;-82
2023/10/01 10:19:05;;;;;;;20.13;16.30;;;;;;;;;;5055697;28;20460;-82
2023/10/01 10:21:46;;;;;;;24.47;17.40;;;;;;;;;;5056078;28;20451;-82
2023/10/01 10:24:21;;;;;;;26.77;18.07;;;;;;;;;;5055618;28;20474;-82
2023/10/01 10:26:58;;;;;;;32.27;18.77;;;;;;;;;;5055887;28;20487;-82
2023/10/01 10:29:47;;;;;;;24.87;16.77;;;;;;;;;;5055465;28;20989;-82
2023/10/01 10:32:13;;;;;;;27.03;18.00;;;;;;;;;;5055915;28;20999;-82
2023/10/01 10:34:47;;;;;;;24.30;17.57;;;;;;;;;;5055458;28;20468;-82
2023/10/01 10:37:28;;;;;;;24.97;18.33;;;;;;;;;;5055818;28;20443;-82
2023/10/01 10:40:04;;;;;;;30.87;19.73;;;;;;;;;;5055686;28;20459;-82
2023/10/01 10:42:30;;;;;;;29.13;22.20;;;;;;;;;;5055955;28;20511;-82
2023/10/01 10:45:21;;;;;;;31.93;22.63;;;;;;;;;;5054991;28;20591;-82
2023/10/01 10:48:02;;;;;;;30.07;20.67;;;;;;;;;;5055329;28;20202;-83
2023/10/01 10:50:57;;;;;;;31.50;22.33;;;;;;;;;;5055904;28;20523;-82
2023/10/01 10:53:24;;;;;;;32.50;23.50;;;;;;;;;;5054013;28;20533;-82
2023/10/01 10:55:50;;;;;;;29.00;22.83;;;;;;;;;;5055418;28;20436;-82
2023/10/01 10:58:16;;;;;;;33.67;23.30;;;;;;;;;;5055582;28;20464;-82
2023/10/01 11:00:44;;;;;;;35.80;22.60;;;;;;;;;;5054515;28;20957;-82
2023/10/01 11:03:11;;;;;;;31.40;22.47;;;;;;;;;;5055109;28;20467;-83
2023/10/01 11:05:49;;;;;;;33.40;21.33;;;;;;;;;;5054951;28;20451;-83
2023/10/01 11:08:25;;;;;;;30.13;20.80;;;;;;;;;;5054030;28;20550;-82
2023/10/01 11:10:54;;;;;;;28.07;19.33;;;;;;;;;;5055371;28;20538;-82
2023/10/01 11:13:36;;;;;;;36.80;19.43;;;;;;;;;;5054930;28;20503;-82
2023/10/01 11:16:14;;;;;;;27.87;19.93;;;;;;;;;;5054097;28;20424;-81
2023/10/01 11:18:41;;;;;;;29.30;19.27;;;;;;;;;;5054515;28;20467;-82
2023/10/01 11:21:11;;;;;;;41.40;20.57;;;;;;;;;;5054729;28;20547;-82
2023/10/01 11:23:37;;;;;;;33.00;20.57;;;;;;;;;;5054607;28;20555;-82
2023/10/01 11:26:06;;;;;;;32.27;19.60;;;;;;;;;;5054891;28;20482;-82
2023/10/01 11:28:41;;;;;;;27.33;18.13;;;;;;;;;;5053503;28;20467;-82
2023/10/01 11:31:23;;;;;;;22.90;17.37;;;;;;;;;;5053879;28;20805;-82
2023/10/01 11:33:59;;;;;;;23.50;17.63;;;;;;;;;;5054873;28;20476;-82
2023/10/01 11:36:35;;;;;;;38.73;19.30;;;;;;;;;;5054510;28;20462;-82
2023/10/01 11:39:03;;;;;;;29.90;19.57;;;;;;;;;;5053572;28;20539;-82
2023/10/01 11:41:38;;;;;;;30.07;18.37;;;;;;;;;;5054232;28;20452;-82
2023/10/01 11:44:06;;;;;;;28.20;18.40;;;;;;;;;;5053773;28;20490;-83
2023/10/01 11:46:34;;;;;;;32.13;18.37;;;;;;;;;;5055298;28;20476;-82
2023/10/01 11:49:16;;;;;;;27.43;17.13;;;;;;;;;;5055660;28;20474;-83
2023/10/01 11:51:45;;;;;;;22.50;17.30;;;;;;;;;;5056151;28;20450;-81
2023/10/01 11:54:13;;;;;;;36.43;19.17;;;;;;;;;;5054926;28;20580;-81
2023/10/01 11:56:41;;;;;;;26.60;17.00;;;;;;;;;;5054326;28;20498;-82
2023/10/01 11:59:09;;;;;;;27.27;17.37;;;;;;;;;;5054961;28;20470;-82
2023/10/01 12:01:47;;;;;;;28.63;16.97;;;;;;;;;;5055344;28;20440;-82
2023/10/01 12:07:16;;;;;;;57.07;18.33;;;;;;;;;;5052496;28;20483;-84
2023/10/01 12:09:43;;;;;;;23.33;15.50;;;;;;;;;;5054998;28;20476;-81
2023/10/01 12:12:09;;;;;;;27.07;15.80;;;;;;;;;;5054433;28;20447;-82
2023/10/01 12:14:52;;;;;;;27.53;16.30;;;;;;;;;;5053848;28;20475;-81
2023/10/01 12:17:23;;;;;;;24.93;16.87;;;;;;;;;;5054095;28;20440;-80
2023/10/01 12:19:50;;;;;;;23.77;14.50;;;;;;;;;;5052983;28;20550;-80
2023/10/01 12:22:23;;;;;;;24.20;15.67;;;;;;;;;;5054392;28;20444;-80
2023/10/01 12:24:56;;;;;;;18.97;14.30;;;;;;;;;;5053067;28;20479;-82
2023/10/01 12:30:30;;;;;;;24.70;14.67;;;;;;;;;;5091815;27;20532;-81
2023/10/01 12:32:59;;;;;;;23.80;14.23;;;;;;;;;;5090926;27;20524;-82
2023/10/01 12:35:29;;;;;;;18.57;14.53;;;;;;;;;;5071499;28;20506;-82
2023/10/01 12:38:05;;;;;;;26.30;13.30;;;;;;;;;;5070444;28;20937;-82
2023/10/01 12:40:34;;;;;;;27.97;14.03;;;;;;;;;;5069997;28;20481;-82
2023/10/01 12:43:01;;;;;;;21.27;13.33;;;;;;;;;;5069171;28;20540;-82
2023/10/01 12:45:28;;;;;;;21.37;14.50;;;;;;;;;;5070779;28;20453;-82
2023/10/01 12:47:54;;;;;;;22.53;13.50;;;;;;;;;;5070362;28;20439;-82
2023/10/01 12:50:26;;;;;;;19.20;13.33;;;;;;;;;;5070874;28;20439;-81
2023/10/01 12:53:17;;;;;;;22.40;13.70;;;;;;;;;;5069228;28;20430;-82
2023/10/01 12:55:39;;;;;;;19.33;11.90;;;;;;;;;;5070585;28;20447;-81
2023/10/01 12:58:06;;;;;;;18.90;12.47;;;;;;;;;;5070742;28;20474;-82
2023/10/01 13:00:45;;;;;;;26.50;12.13;;;;;;;;;;5069385;28;20811;-82
2023/10/01 13:03:16;;;;;;;19.70;12.33;;;;;;;;;;5069301;28;21057;-82
2023/10/01 13:05:43;;;;;;;18.37;11.30;;;;;;;;;;5069673;28;20455;-81
2023/10/01 13:08:11;;;;;;;18.63;11.30;;;;;;;;;;5068730;28;20466;-82
2023/10/01 13:10:37;;;;;;;17.60;10.90;;;;;;;;;;5069159;28;20455;-82
2023/10/01 13:13:05;;;;;;;18.07;11.07;;;;;;;;;;5069878;28;21014;-81
2023/10/01 13:15:33;;;;;;;18.40;11.33;;;;;;;;;;5069112;28;20462;-81
2023/10/01 13:18:02;;;;;;;22.30;12.80;;;;;;;;;;5070605;28;20443;-82
2023/10/01 13:20:29;;;;;;;19.20;11.70;;;;;;;;;;5070565;28;20442;-82
2023/10/01 13:22:59;;;;;;;23.33;10.37;;;;;;;;;;5069583;28;20443;-82
2023/10/01 13:25:27;;;;;;;20.40;11.13;;;;;;;;;;5070650;28;20496;-82
2023/10/01 13:28:02;;;;;;;24.97;10.70;;;;;;;;;;5069538;28;20447;-81
2023/10/01 13:30:29;;;;;;;20.60;11.07;;;;;;;;;;5070013;28;20415;-82
2023/10/01 13:33:13;;;;;;;19.70;10.23;;;;;;;;;;5052245;28;20546;-82
2023/10/01 13:35:52;;;;;;;21.87;11.27;;;;;;;;;;5069999;28;20430;-82
2023/10/01 13:38:27;;;;;;;20.87;10.13;;;;;;;;;;5070162;28;20470;-81
2023/10/01 14:11:09;;;;;;;16.77;10.30;;;;;;;;;;5048651;28;20956;-82
2023/10/01 14:13:35;;;;;;;16.37;8.87;;;;;;;;;;5055643;28;20476;-82
2023/10/01 14:16:12;;;;;;;14.57;9.80;;;;;;;;;;5056211;28;20440;-81
2023/10/01 14:18:40;;;;;;;15.30;9.50;;;;;;;;;;5055393;28;20554;-81
2023/10/01 14:21:13;;;;;;;19.20;9.40;;;;;;;;;;5056066;28;20436;-81
2023/10/01 14:23:42;;;;;;;14.07;9.30;;;;;;;;;;5055147;28;21016;-81
2023/10/01 14:26:13;;;;;;;16.97;9.53;;;;;;;;;;5055609;28;20478;-82
2023/10/01 14:28:39;;;;;;;15.60;9.93;;;;;;;;;;5054984;28;20475;-82
2023/10/01 14:31:06;;;;;;;17.90;9.50;;;;;;;;;;5054462;28;20443;-82
2023/10/01 14:33:33;;;;;;;14.80;9.53;;;;;;;;;;5053993;28;20475;-82
2023/10/01 14:36:02;;;;;;;22.80;8.20;;;;;;;;;;5056235;28;20451;-81
2023/10/01 14:38:37;;;;;;;14.17;8.40;;;;;;;;;;5055625;28;20476;-82
2023/10/01 14:41:04;;;;;;;20.20;10.03;;;;;;;;;;5056016;28;20424;-82
2023/10/01 14:43:31;;;;;;;19.10;9.90;;;;;;;;;;5054716;28;20590;-82
2023/10/01 14:45:57;;;;;;;23.03;10.00;;;;;;;;;;5054196;28;20439;-81
2023/10/01 14:48:24;;;;;;;15.50;9.50;;;;;;;;;;5055134;28;20837;-81
2023/10/01 14:50:56;;;;;;;15.27;8.63;;;;;;;;;;5055592;28;20810;-82
2023/10/01 14:53:22;;;;;;;17.13;8.37;;;;;;;;;;5053907;28;20506;-82
2023/10/01 14:55:50;;;;;;;13.57;9.07;;;;;;;;;;5053857;28;20439;-81
2023/10/01 14:58:22;;;;;;;15.23;9.10;;;;;;;;;;5054999;28;20472;-82
2023/10/01 15:00:54;;;;;;;17.03;8.53;;;;;;;;;;5054902;28;20529;-82
2023/10/01 15:03:22;;;;;;;18.40;9.30;;;;;;;;;;5054929;28;20487;-82
2023/10/01 15:05:49;;;;;;;14.50;7.77;;;;;;;;;;5055282;28;20448;-82
2023/10/01 15:08:16;;;;;;;17.00;8.53;;;;;;;;;;5054893;28;20472;-82
2023/10/01 15:10:50;;;;;;;15.83;8.90;;;;;;;;;;5087183;28;20506;-82
2023/10/01 15:13:17;;;;;;;21.00;10.00;;;;;;;;;;5054579;28;21005;-82
2023/10/01 15:15:45;;;;;;;13.73;8.40;;;;;;;;;;5055434;28;20473;-81
2023/10/01 15:18:17;;;;;;;21.97;8.70;;;;;;;;;;5054632;28;20474;-82
2023/10/01 15:20:49;;;;;;;14.63;8.37;;;;;;;;;;5055272;28;20435;-81
2023/10/01 15:23:16;;;;;;;17.37;8.30;;;;;;;;;;5052291;28;20464;-82
2023/10/01 15:25:42;;;;;;;14.20;9.00;;;;;;;;;;5054879;28;20447;-83
2023/10/01 15:28:09;;;;;;;16.00;8.70;;;;;;;;;;5054490;28;20491;-82
2023/10/01 15:30:38;;;;;;;15.80;7.50;;;;;;;;;;5054749;28;20977;-80
2023/10/01 15:33:15;;;;;;;11.10;7.40;;;;;;;;;;5054413;28;20977;-83